»·PEaware :: N350PB KPSP-KLAX

N350PB :: KPSP-KLAX

FLIGHT INFORMATION

Flight Status: Arrived
Operator: Privately registered:
United States
More flights under this callsign
Pilot: John H. (3957)
Aircraft: BEECH AIRCRAFT SUPER KING AIR 350
(B350)
More flights by this aircraft type
Origin: KPSP Palm Springs Intl
United States
Destination: KLAX Los Angeles Intl
United States
More flights between these airports :: More routes between these airports
Route: CATH1 PSP V388 PDZ LAHAB
File this flight plan on PilotEdge
Remarks: +CW / TEC route PSPP10A
Altitude:
(Current/Filed)
12,000ft
Speed:
(Current/Filed)
245kts
Departed: 23-Apr-19 09:26 AM
Arrived: 23-Apr-19 10:12 AM
Distance/Time
Traveled:
94nm/0:45
Distance/Time
To Go:
Arrived

Flight Plot

Page will automatically refresh every two minutes.


Map Options




Map Legend


Flown Route
Filed Route
Departure Airport
Arrival Airport
Navaid (VOR, NDB)
Fix

Horizontal Profiles

Position Reports

Time Latitude Longitude Heading Altitude Ground
Speed
23-Apr-19 09:05 33.826300 -116.508717 272 422ft 0kts
23-Apr-19 09:05 33.826300 -116.508717 272 422ft 0kts
23-Apr-19 09:06 33.826300 -116.508717 272 422ft 0kts
23-Apr-19 09:07 33.826300 -116.508717 272 422ft 0kts
23-Apr-19 09:08 33.826300 -116.508717 272 422ft 0kts
23-Apr-19 09:09 33.826300 -116.508717 272 422ft 0kts
23-Apr-19 09:10 33.826300 -116.508717 272 422ft 0kts
23-Apr-19 09:11 33.826300 -116.508717 272 422ft 0kts
23-Apr-19 09:12 33.826300 -116.508717 272 422ft 0kts
23-Apr-19 09:13 33.826300 -116.508717 272 422ft 0kts
23-Apr-19 09:14 33.826300 -116.508717 272 422ft 0kts
23-Apr-19 09:15 33.826300 -116.508717 272 422ft 0kts
23-Apr-19 09:16 33.826300 -116.508717 272 422ft 0kts
23-Apr-19 09:17 33.826300 -116.508717 272 422ft 0kts
23-Apr-19 09:18 33.826223 -116.508366 65 421ft 11kts
23-Apr-19 09:19 33.823521 -116.505050 143 412ft 29kts
23-Apr-19 09:20 33.822736 -116.503245 185 407ft 9kts
23-Apr-19 09:21 33.818589 -116.499716 115 398ft 14kts
23-Apr-19 09:22 33.818520 -116.499053 89 397ft 0kts
23-Apr-19 09:23 33.818520 -116.499053 89 397ft 0kts
23-Apr-19 09:24 33.818839 -116.498318 11 395ft 14kts
23-Apr-19 09:25 33.827108 -116.505103 324 428ft 122kts
23-Apr-19 09:26 33.855487 -116.532134 322 1582ft 154kts
23-Apr-19 09:27 33.888966 -116.563139 322 3153ft 157kts
23-Apr-19 09:28 33.915059 -116.548462 117 4642ft 154kts
23-Apr-19 09:29 33.897227 -116.503389 114 6022ft 157kts
23-Apr-19 09:30 33.879738 -116.456766 114 7469ft 161kts
23-Apr-19 09:31 33.858225 -116.412023 167 8876ft 160kts
23-Apr-19 09:32 33.859854 -116.439530 5 10016ft 157kts
23-Apr-19 09:33 33.893748 -116.462861 321 11137ft 160kts
23-Apr-19 09:34 33.902835 -116.507040 272 11949ft 177kts
23-Apr-19 09:35 33.908073 -116.566941 281 11960ft 224kts
23-Apr-19 09:36 33.923082 -116.635240 286 11951ft 246kts
23-Apr-19 09:37 33.940771 -116.705305 287 11947ft 255kts
23-Apr-19 09:38 33.947922 -116.777979 268 11943ft 258kts
23-Apr-19 09:39 33.945782 -116.851165 268 11954ft 259kts
23-Apr-19 09:40 33.943357 -116.922694 267 11954ft 260kts
23-Apr-19 09:41 33.940850 -116.994193 267 11953ft 261kts
23-Apr-19 09:42 33.938441 -117.061833 267 11953ft 261kts
23-Apr-19 09:43 33.936135 -117.130837 268 11953ft 261kts
23-Apr-19 09:44 33.934122 -117.199583 268 11952ft 261kts
23-Apr-19 09:45 33.931374 -117.267960 267 11952ft 261kts
23-Apr-19 09:46 33.928325 -117.337680 267 11953ft 261kts
23-Apr-19 09:47 33.925433 -117.406079 267 11953ft 261kts
23-Apr-19 09:48 33.922709 -117.474556 267 11768ft 257kts
23-Apr-19 09:49 33.920008 -117.540016 269 10921ft 238kts
23-Apr-19 09:50 33.921078 -117.601365 272 10008ft 229kts
23-Apr-19 09:51 33.922616 -117.659222 271 9075ft 223kts
23-Apr-19 09:52 33.923725 -117.717896 271 7981ft 221kts
23-Apr-19 09:53 33.924729 -117.776151 271 6874ft 220kts
23-Apr-19 09:54 33.925283 -117.833804 270 5968ft 209kts
23-Apr-19 09:55 33.925708 -117.883815 270 5932ft 173kts
23-Apr-19 09:56 33.926179 -117.928913 266 5319ft 177kts
23-Apr-19 09:57 33.922099 -117.973409 287 4938ft 167kts
23-Apr-19 09:58 33.944000 -118.001252 291 4928ft 130kts
23-Apr-19 09:59 33.950347 -118.031962 283 4610ft 129kts
23-Apr-19 10:00 33.956792 -118.064508 284 4125ft 140kts
23-Apr-19 10:01 33.961858 -118.096813 274 3941ft 125kts
23-Apr-19 10:02 33.961956 -118.125193 267 3949ft 111kts
23-Apr-19 10:03 33.960167 -118.153951 265 3827ft 124kts
23-Apr-19 10:04 33.956949 -118.190120 264 3318ft 146kts
23-Apr-19 10:05 33.953036 -118.229772 263 2666ft 153kts
23-Apr-19 10:06 33.949283 -118.266974 263 2040ft 137kts
23-Apr-19 10:07 33.945852 -118.300516 263 1473ft 127kts
23-Apr-19 10:08 33.942861 -118.329736 263 994ft 117kts
23-Apr-19 10:09 33.939899 -118.358597 263 534ft 115kts
23-Apr-19 10:10 33.937194 -118.385488 268 125ft 109kts
23-Apr-19 10:11 33.935340 -118.393003 119 103ft 10kts
23-Apr-19 10:12 33.935620 -118.387635 78 100ft 5kts
23-Apr-19 10:13 33.935088 -118.384552 119 100ft 2kts

Navigation Log

Ident Type
Flight plan parsing failed, navigation log unavailable